Milltown, Montana
Current Conditions -  °F | °C
As of 10:48 PM on Wednesday 26 Nov 2014 (Local Time) from KMSO Reporting Station
Haze Haze  
Wind Chill: 30°   Ceiling: 300
Heat Index: 30°   Visibility: 3mi
Dew Point: 30°   Wind: 0mph
Humidity: 100%   Direction: NA
Pressure: 30.1"   Gusts: NA
Location:  46.87°N, 113.88°W
Report Text: KMSO 270548Z AUTO 00000KT 3SM BR OVC003 M01/M01 A3010 RMK AO2
Loading
Personal Weather Stations






























Interactive Weather Map New forecast layout! Learn more

10-Day Weather Forecast

Advertisements
Track Severe Weather on mobile